Time;durP1;ratioP1;P1;durP2;ratioP2;P2;SDS_P1;SDS_P2;PMS_P1;PMS_P2;Temp;Humidity;BMP_temperature;BMP_pressure;BME280_temperature;BME280_humidity;BME280_pressure;Samples;Min_cycle;Max_cycle;Signal;HPM_P1;HPM_P2
2021/01/30 00:00:32;;;;;;;4.10;3.30;;;9.00;79.00;;;;;;5063113;28;20087;-77
2021/01/30 00:02:58;;;;;;;3.85;3.22;;;8.90;79.00;;;;;;5053640;28;20021;-79
2021/01/30 00:05:25;;;;;;;4.45;3.50;;;8.90;79.00;;;;;;5058214;28;20461;-79
2021/01/30 00:07:51;;;;;;;4.68;3.58;;;8.90;79.10;;;;;;5030133;28;20064;-80
2021/01/30 00:10:18;;;;;;;4.32;3.45;;;8.80;79.00;;;;;;5031698;28;20056;-79
2021/01/30 00:12:44;;;;;;;3.92;3.42;;;8.80;79.00;;;;;;5046799;28;20032;-79
2021/01/30 00:15:11;;;;;;;4.50;3.50;;;8.80;79.00;;;;;;5043846;28;20025;-80
2021/01/30 00:17:37;;;;;;;4.50;3.75;;;8.80;79.10;;;;;;5022147;28;20029;-80
2021/01/30 00:20:07;;;;;;;4.45;3.65;;;8.70;79.10;;;;;;5023461;28;20029;-80
2021/01/30 00:22:33;;;;;;;4.50;3.67;;;8.70;79.10;;;;;;5041931;28;20365;-80
2021/01/30 00:24:59;;;;;;;3.85;3.22;;;8.60;79.00;;;;;;5016150;28;20029;-79
2021/01/30 00:27:25;;;;;;;4.53;3.88;;;8.60;79.10;;;;;;5019831;28;20707;-79
2021/01/30 00:29:51;;;;;;;4.20;3.40;;;8.60;79.10;;;;;;5040575;28;20035;-80
2021/01/30 00:32:19;;;;;;;4.72;4.22;;;8.60;79.10;;;;;;5035249;28;20111;-80
2021/01/30 00:34:46;;;;;;;4.95;4.07;;;8.50;79.10;;;;;;5035147;28;20021;-79
2021/01/30 00:37:14;;;;;;;5.57;4.25;;;8.50;79.10;;;;;;5043722;28;20025;-79
2021/01/30 00:39:40;;;;;;;5.43;4.53;;;8.50;79.20;;;;;;5041124;28;20041;-79
2021/01/30 00:42:07;;;;;;;6.20;4.55;;;8.40;79.10;;;;;;4993275;28;20353;-79
2021/01/30 00:44:33;;;;;;;5.45;4.32;;;8.40;79.10;;;;;;5049644;28;20056;-79
2021/01/30 00:46:59;;;;;;;5.65;4.43;;;8.40;79.10;;;;;;5049007;28;20025;-79
2021/01/30 00:49:26;;;;;;;5.55;4.82;;;8.40;79.10;;;;;;5016369;28;20485;-79
2021/01/30 00:51:53;;;;;;;5.22;4.43;;;8.30;79.10;;;;;;5040248;28;20123;-80
2021/01/30 00:54:19;;;;;;;5.32;4.60;;;8.30;79.10;;;;;;5045947;28;20043;-79
2021/01/30 00:56:50;;;;;;;5.80;4.88;;;8.30;79.10;;;;;;5037692;28;20274;-79
2021/01/30 00:59:16;;;;;;;5.97;4.93;;;8.30;79.10;;;;;;5045021;28;20025;-80
2021/01/30 01:01:43;;;;;;;6.43;5.15;;;8.20;79.10;;;;;;5052178;28;20115;-80
2021/01/30 01:04:15;;;;;;;5.60;4.82;;;8.20;79.00;;;;;;5037020;28;20052;-79
2021/01/30 01:06:40;;;;;;;6.43;5.38;;;8.20;79.00;;;;;;5030509;28;20497;-79
2021/01/30 01:09:07;;;;;;;7.03;5.00;;;8.10;79.00;;;;;;5021812;28;20025;-79
2021/01/30 01:11:35;;;;;;;6.50;5.47;;;8.10;79.10;;;;;;5037559;28;20033;-79
2021/01/30 01:14:01;;;;;;;6.68;5.63;;;8.10;79.00;;;;;;5054449;28;20500;-79
2021/01/30 01:16:27;;;;;;;6.45;5.40;;;8.10;79.10;;;;;;5038224;28;20039;-79
2021/01/30 01:18:52;;;;;;;6.90;5.85;;;8.00;79.00;;;;;;5044457;28;20095;-79
2021/01/30 01:21:18;;;;;;;7.13;5.50;;;8.00;79.00;;;;;;5036033;28;20119;-80
2021/01/30 01:23:45;;;;;;;7.25;6.30;;;8.00;79.10;;;;;;5033724;28;20108;-80
2021/01/30 01:26:13;;;;;;;7.30;6.20;;;7.90;79.00;;;;;;5057042;28;20033;-80
2021/01/30 01:28:39;;;;;;;7.10;5.95;;;7.90;79.00;;;;;;5039381;28;20393;-80
2021/01/30 01:31:04;;;;;;;7.40;6.25;;;7.90;79.00;;;;;;5057168;28;20047;-80
2021/01/30 01:33:31;;;;;;;8.18;6.57;;;7.90;79.00;;;;;;5006095;28;20028;-80
2021/01/30 01:35:57;;;;;;;7.72;6.53;;;7.80;79.00;;;;;;5023400;28;20033;-80
2021/01/30 01:38:23;;;;;;;8.30;6.00;;;7.80;79.00;;;;;;5039456;28;20021;-79
2021/01/30 01:40:48;;;;;;;7.78;6.20;;;7.80;79.00;;;;;;5035394;28;20136;-80
2021/01/30 01:43:23;;;;;;;7.90;6.40;;;7.80;79.00;;;;;;5022815;28;20397;-80
2021/01/30 01:46:15;;;;;;;;;;;7.80;79.10;;;;;;5054152;28;20029;-80
2021/01/30 01:48:48;;;;;;;6.75;5.78;;;7.70;79.00;;;;;;5001102;28;19936;-80
2021/01/30 01:51:24;;;;;;;7.07;5.72;;;7.70;78.90;;;;;;5054140;28;20101;-80
2021/01/30 01:53:50;;;;;;;7.45;5.90;;;7.60;79.00;;;;;;5037523;28;20028;-80
2021/01/30 01:56:22;;;;;;;7.78;6.95;;;7.60;79.00;;;;;;5020249;28;20110;-80
2021/01/30 01:58:51;;;;;;;7.45;6.18;;;7.60;79.10;;;;;;5037612;28;20458;-80
2021/01/30 02:01:19;;;;;;;7.60;6.78;;;7.60;79.10;;;;;;5039652;28;20036;-79
2021/01/30 02:03:56;;;;;;;8.02;6.25;;;7.50;79.10;;;;;;5055661;28;20480;-80
2021/01/30 02:06:21;;;;;;;7.22;6.00;;;7.50;79.20;;;;;;5039418;28;20031;-80
2021/01/30 02:08:48;;;;;;;7.53;6.32;;;7.50;79.10;;;;;;5023468;28;20380;-80
2021/01/30 02:11:14;;;;;;;7.13;6.40;;;7.40;79.10;;;;;;5014462;28;20033;-81
2021/01/30 02:13:50;;;;;;;7.38;6.35;;;7.40;79.10;;;;;;5027198;28;20040;-80
2021/01/30 02:16:39;;;;;;;7.88;6.57;;;7.40;79.10;;;;;;5024801;28;20036;-80
2021/01/30 02:19:23;;;;;;;7.20;6.20;;;7.40;79.20;;;;;;5034792;28;20031;-80
2021/01/30 02:22:05;;;;;;;7.17;6.30;;;7.30;79.20;;;;;;5054600;28;20068;-80
2021/01/30 02:24:59;;;;;;;7.35;5.93;;;7.40;79.20;;;;;;5046455;28;20070;-80
2021/01/30 02:27:48;;;;;;;6.85;5.80;;;7.30;79.20;;;;;;5043897;28;20057;-80
2021/01/30 02:30:32;;;;;;;6.88;6.18;;;7.30;79.20;;;;;;4995820;28;20037;-80
2021/01/30 02:33:12;;;;;;;6.45;5.25;;;7.30;79.20;;;;;;5043485;28;20025;-80
2021/01/30 02:36:14;;;;;;;7.15;5.53;;;7.20;79.20;;;;;;5042562;28;20028;-80
2021/01/30 02:38:46;;;;;;;6.47;5.15;;;7.20;79.20;;;;;;5036365;28;20029;-80
2021/01/30 02:41:18;;;;;;;6.60;5.32;;;7.20;79.10;;;;;;5049798;28;20048;-80
2021/01/30 02:43:47;;;;;;;7.20;6.03;;;7.20;79.20;;;;;;5036837;28;20029;-79
2021/01/30 02:46:26;;;;;;;6.63;5.40;;;7.10;79.20;;;;;;5037444;28;20016;-79
2021/01/30 02:48:56;;;;;;;6.72;5.65;;;7.10;79.30;;;;;;5052888;28;20086;-78
2021/01/30 02:51:26;;;;;;;6.97;6.00;;;7.10;79.20;;;;;;5041334;28;20035;-79
2021/01/30 02:53:56;;;;;;;7.57;5.82;;;7.10;79.20;;;;;;5038947;28;20136;-78
2021/01/30 02:56:23;;;;;;;7.20;5.95;;;7.00;79.20;;;;;;5053708;28;20035;-79
2021/01/30 02:58:59;;;;;;;6.32;5.40;;;7.10;79.30;;;;;;5053799;28;20032;-79
2021/01/30 03:01:24;;;;;;;6.43;5.63;;;7.00;79.30;;;;;;5046083;28;20033;-79
2021/01/30 03:03:59;;;;;;;6.68;5.82;;;7.00;79.20;;;;;;5020352;28;20116;-79
2021/01/30 03:06:48;;;;;;;7.07;6.10;;;7.00;79.30;;;;;;5042673;28;20025;-79
2021/01/30 03:09:47;;;;;;;6.35;5.43;;;6.90;79.30;;;;;;5013912;28;20477;-79
2021/01/30 03:12:37;;;;;;;6.35;5.50;;;6.90;79.20;;;;;;5025656;28;20037;-80
2021/01/30 03:15:33;;;;;;;6.78;5.65;;;6.90;79.20;;;;;;5038298;28;20029;-79
2021/01/30 03:18:01;;;;;;;6.70;5.38;;;6.90;79.20;;;;;;5031324;28;20036;-80
2021/01/30 03:20:30;;;;;;;6.80;5.32;;;6.80;79.20;;;;;;5036585;28;20476;-79
2021/01/30 03:22:57;;;;;;;6.30;5.18;;;6.80;79.20;;;;;;5036879;28;20052;-79
2021/01/30 03:25:26;;;;;;;6.43;5.30;;;6.80;79.30;;;;;;5018690;28;20056;-79
2021/01/30 03:27:56;;;;;;;7.45;6.15;;;6.80;79.30;;;;;;5036549;28;20029;-79
2021/01/30 03:30:22;;;;;;;6.95;5.93;;;6.80;79.30;;;;;;5038275;28;20032;-80
2021/01/30 03:32:48;;;;;;;6.78;5.53;;;6.80;79.30;;;;;;5037681;28;20487;-79
2021/01/30 03:35:14;;;;;;;6.60;5.57;;;6.80;79.90;;;;;;5035705;28;20107;-80
2021/01/30 03:37:41;;;;;;;7.18;6.15;;;6.70;79.30;;;;;;5025472;28;20034;-82
2021/01/30 03:40:08;;;;;;;6.32;4.90;;;6.70;79.30;;;;;;5036800;28;20553;-79
2021/01/30 03:42:34;;;;;;;7.10;5.22;;;6.70;79.30;;;;;;5038123;28;20040;-79
2021/01/30 03:45:00;;;;;;;6.40;5.20;;;6.70;79.20;;;;;;5034153;28;20025;-79
2021/01/30 03:47:26;;;;;;;6.13;5.03;;;6.70;79.30;;;;;;5018629;28;20036;-80
2021/01/30 03:49:52;;;;;;;6.22;5.05;;;6.60;79.20;;;;;;5018526;28;20334;-79
2021/01/30 03:52:17;;;;;;;6.32;4.85;;;6.60;79.20;;;;;;5026752;28;20021;-80
2021/01/30 03:54:43;;;;;;;6.50;5.20;;;6.60;79.20;;;;;;5021750;28;20082;-79
2021/01/30 03:57:09;;;;;;;6.10;5.20;;;6.60;79.20;;;;;;5033961;28;20077;-79
2021/01/30 03:59:35;;;;;;;6.55;5.45;;;6.60;79.20;;;;;;5029852;28;20036;-78
2021/01/30 04:02:00;;;;;;;6.78;5.30;;;6.60;79.20;;;;;;5033977;28;20127;-79
2021/01/30 04:04:27;;;;;;;5.68;4.65;;;6.60;79.20;;;;;;5035156;28;20059;-79
2021/01/30 04:06:54;;;;;;;6.82;5.25;;;6.50;79.20;;;;;;5014589;28;20029;-79
2021/01/30 04:09:21;;;;;;;5.90;5.00;;;6.50;79.20;;;;;;5033888;28;20481;-80
2021/01/30 04:11:47;;;;;;;6.13;5.32;;;6.50;79.20;;;;;;5028803;28;20031;-80
2021/01/30 04:14:13;;;;;;;6.38;4.90;;;6.50;79.20;;;;;;5054168;28;20174;-81
2021/01/30 04:16:39;;;;;;;5.93;5.00;;;6.50;79.20;;;;;;5034274;28;20074;-79
2021/01/30 04:19:05;;;;;;;5.70;4.68;;;6.50;79.20;;;;;;5035183;28;20448;-79
2021/01/30 04:21:31;;;;;;;5.78;4.82;;;6.50;79.20;;;;;;5024587;28;20044;-79
2021/01/30 04:23:57;;;;;;;6.60;4.85;;;6.40;79.20;;;;;;5003359;28;20025;-80
2021/01/30 04:26:23;;;;;;;5.80;4.75;;;6.50;79.20;;;;;;5033829;28;20035;-79
2021/01/30 04:28:50;;;;;;;6.10;5.07;;;6.40;79.80;;;;;;5045991;28;20094;-80
2021/01/30 04:31:17;;;;;;;5.47;4.50;;;6.40;79.20;;;;;;5030541;28;20385;-79
2021/01/30 04:33:44;;;;;;;5.90;4.88;;;6.40;79.20;;;;;;5035627;28;20037;-79
2021/01/30 04:36:10;;;;;;;5.80;4.75;;;6.40;79.20;;;;;;5032558;28;20024;-80
2021/01/30 04:38:36;;;;;;;5.70;4.57;;;6.30;79.10;;;;;;5012402;28;20452;-80
2021/01/30 04:41:40;;;;;;;5.63;4.68;;;6.30;79.20;;;;;;5020553;28;20048;-79
2021/01/30 04:44:24;;;;;;;5.45;4.28;;;6.30;79.30;;;;;;5033477;28;20041;-80
2021/01/30 04:46:58;;;;;;;5.57;4.40;;;6.30;79.20;;;;;;5025738;28;20481;-79
2021/01/30 04:49:54;;;;;;;5.50;4.78;;;6.30;79.20;;;;;;5054037;28;20469;-80
2021/01/30 04:52:43;;;;;;;5.70;4.68;;;6.20;79.20;;;;;;5036463;28;20060;-80
2021/01/30 04:55:30;;;;;;;5.13;4.20;;;6.20;79.10;;;;;;5039394;28;20029;-80
2021/01/30 04:58:18;;;;;;;5.25;4.25;;;6.20;79.20;;;;;;5041601;28;20032;-80
2021/01/30 05:00:54;;;;;;;5.57;3.97;;;6.20;79.30;;;;;;5035476;28;20169;-79
2021/01/30 05:04:04;;;;;;;5.78;4.20;;;6.20;79.20;;;;;;5066652;28;20025;-80
2021/01/30 05:06:48;;;;;;;5.40;4.15;;;6.10;79.30;;;;;;5042145;28;20074;-82
2021/01/30 05:09:21;;;;;;;6.07;4.47;;;6.10;79.20;;;;;;5036156;28;20033;-80
2021/01/30 05:11:56;;;;;;;4.97;3.92;;;6.10;79.20;;;;;;5038695;28;20639;-80
2021/01/30 05:14:25;;;;;;;;;;;6.10;79.30;;;;;;5068272;28;20032;-80
2021/01/30 05:17:09;;;;;;;4.93;3.85;;;6.00;79.20;;;;;;5063848;28;19908;-79
2021/01/30 05:19:44;;;;;;;4.43;3.50;;;6.00;79.00;;;;;;5043371;28;20027;-81
2021/01/30 05:22:14;;;;;;;4.43;3.22;;;6.00;79.20;;;;;;5057435;28;20091;-81
2021/01/30 05:24:44;;;;;;;5.07;4.03;;;6.00;79.20;;;;;;5045229;28;20029;-81
2021/01/30 05:27:38;;;;;;;4.88;3.78;;;6.00;79.20;;;;;;5034885;28;20530;-80
2021/01/30 05:30:31;;;;;;;4.18;3.35;;;5.90;79.30;;;;;;5038041;28;20035;-81
2021/01/30 05:33:33;;;;;;;4.53;3.65;;;5.90;79.30;;;;;;5056645;28;20062;-81
2021/01/30 05:36:07;;;;;;;4.90;3.58;;;5.90;79.40;;;;;;5020910;28;20032;-81
2021/01/30 05:39:02;;;;;;;5.38;3.67;;;5.90;79.20;;;;;;5047318;28;20036;-81
2021/01/30 05:41:40;;;;;;;4.60;3.85;;;5.80;79.30;;;;;;5047929;28;20102;-81
2021/01/30 05:44:32;;;;;;;4.47;3.58;;;5.80;79.20;;;;;;5060792;28;20049;-80
2021/01/30 05:46:58;;;;;;;4.70;3.83;;;5.80;79.20;;;;;;5047754;28;20029;-80
2021/01/30 05:49:29;;;;;;;5.35;3.85;;;5.80;79.20;;;;;;5039126;28;20029;-80
2021/01/30 05:52:03;;;;;;;4.68;3.92;;;5.80;79.20;;;;;;5057083;28;20424;-80
2021/01/30 05:54:29;;;;;;;4.78;3.50;;;5.70;79.20;;;;;;5051249;28;20025;-80
2021/01/30 05:56:55;;;;;;;5.03;3.83;;;5.70;79.10;;;;;;4999712;28;20432;-80
2021/01/30 05:59:25;;;;;;;5.07;3.70;;;5.70;79.10;;;;;;5054897;28;20028;-80
2021/01/30 06:02:08;;;;;;;4.85;3.80;;;5.70;79.10;;;;;;5048640;28;20056;-80
2021/01/30 06:04:33;;;;;;;4.25;3.58;;;5.70;79.20;;;;;;5038569;28;20055;-81
2021/01/30 06:06:59;;;;;;;5.07;4.05;;;5.70;79.10;;;;;;5037867;28;20037;-81
2021/01/30 06:09:35;;;;;;;4.85;3.72;;;5.70;79.20;;;;;;5023788;28;20029;-80
2021/01/30 06:12:02;;;;;;;5.32;4.20;;;5.70;79.20;;;;;;5038984;28;20055;-81
2021/01/30 06:14:39;;;;;;;5.13;4.10;;;5.60;79.10;;;;;;5036333;28;20052;-80
2021/01/30 06:17:20;;;;;;;5.00;3.80;;;5.60;79.20;;;;;;5049705;28;20028;-80
2021/01/30 06:20:02;;;;;;;4.13;3.22;;;5.60;79.20;;;;;;5048090;28;20048;-81
2021/01/30 06:22:27;;;;;;;5.00;4.13;;;5.60;79.20;;;;;;5033290;28;20423;-80
2021/01/30 06:24:53;;;;;;;4.53;3.70;;;5.60;79.10;;;;;;5033111;28;20037;-80
2021/01/30 06:27:41;;;;;;;5.38;3.92;;;5.60;79.10;;;;;;5038987;28;20124;-80
2021/01/30 06:30:08;;;;;;;4.35;3.60;;;5.50;79.20;;;;;;5039876;28;20025;-80
2021/01/30 06:32:49;;;;;;;4.80;3.88;;;5.50;79.00;;;;;;5039280;28;20445;-80
2021/01/30 06:35:17;;;;;;;5.25;3.90;;;5.50;79.20;;;;;;5063131;28;20032;-80
2021/01/30 06:37:59;;;;;;;4.90;4.07;;;5.50;79.10;;;;;;5052980;28;20319;-80
2021/01/30 06:40:36;;;;;;;5.00;3.67;;;5.50;79.20;;;;;;5051816;28;20031;-81
2021/01/30 06:43:14;;;;;;;4.60;3.35;;;5.50;79.20;;;;;;5036327;28;20041;-80
2021/01/30 06:45:44;;;;;;;4.90;3.75;;;5.50;79.10;;;;;;5039410;28;20358;-80
2021/01/30 06:48:33;;;;;;;4.32;3.47;;;5.50;79.10;;;;;;5038605;28;20020;-79
2021/01/30 06:50:59;;;;;;;4.57;3.50;;;5.50;79.20;;;;;;5035672;28;20033;-80
2021/01/30 06:53:32;;;;;;;5.07;3.70;;;5.40;79.00;;;;;;5006291;28;20070;-80
2021/01/30 06:56:13;;;;;;;5.05;3.80;;;5.40;79.00;;;;;;5035556;28;20024;-80
2021/01/30 06:58:42;;;;;;;4.00;3.35;;;5.40;79.20;;;;;;5065724;28;20106;-80
2021/01/30 07:01:17;;;;;;;4.53;3.58;;;5.40;79.00;;;;;;5054519;28;20036;-81
2021/01/30 07:04:07;;;;;;;4.55;3.53;;;5.40;79.10;;;;;;5043905;28;20080;-80
2021/01/30 07:07:08;;;;;;;4.22;3.35;;;5.40;79.10;;;;;;5047681;28;20024;-81
2021/01/30 07:10:10;;;;;;;5.00;3.60;;;5.40;79.10;;;;;;5029456;28;20048;-80
2021/01/30 07:13:04;;;;;;;4.32;3.50;;;5.40;79.20;;;;;;5037857;28;20060;-80
2021/01/30 07:15:48;;;;;;;4.68;3.67;;;5.30;79.10;;;;;;5030882;28;20024;-80
2021/01/30 07:18:16;;;;;;;4.88;3.50;;;5.30;79.10;;;;;;5043836;28;20017;-80
2021/01/30 07:21:00;;;;;;;4.65;3.70;;;5.30;79.00;;;;;;5070481;28;20112;-81
2021/01/30 07:23:42;;;;;;;4.05;3.03;;;5.30;79.20;;;;;;5047749;28;20056;-80
2021/01/30 07:26:45;;;;;;;3.92;3.08;;;5.30;79.10;;;;;;5036972;28;20056;-81
2021/01/30 07:29:36;;;;;;;4.53;3.67;;;5.30;79.20;;;;;;5057649;28;20039;-81
2021/01/30 07:32:31;;;;;;;4.88;3.60;;;5.30;79.10;;;;;;5036040;28;20071;-81
2021/01/30 07:35:20;;;;;;;3.77;3.23;;;5.30;79.20;;;;;;5035009;28;20056;-80
2021/01/30 07:37:52;;;;;;;4.35;3.15;;;5.20;79.10;;;;;;5037207;28;20029;-79
2021/01/30 07:40:23;;;;;;;4.63;3.78;;;5.20;79.10;;;;;;5071970;28;20039;-80
2021/01/30 07:42:56;;;;;;;5.20;3.78;;;5.20;79.10;;;;;;5046968;28;20036;-80
2021/01/30 07:45:29;;;;;;;4.65;3.65;;;5.30;79.20;;;;;;5039090;28;20021;-79
2021/01/30 07:48:09;;;;;;;4.57;3.53;;;5.20;79.20;;;;;;5065310;28;20040;-79
2021/01/30 07:50:38;;;;;;;4.88;3.20;;;5.20;79.20;;;;;;5051912;28;20415;-79
2021/01/30 07:53:08;;;;;;;4.32;3.40;;;5.20;79.10;;;;;;5053796;28;20091;-79
2021/01/30 07:55:36;;;;;;;4.53;3.28;;;5.20;79.10;;;;;;5036960;28;20020;-79
2021/01/30 07:58:33;;;;;;;4.70;3.78;;;5.20;79.10;;;;;;5039958;28;20053;-80
2021/01/30 08:01:20;;;;;;;4.20;3.30;;;5.20;79.20;;;;;;5034021;28;20121;-76
2021/01/30 08:04:09;;;;;;;4.45;3.40;;;5.20;79.10;;;;;;5062643;28;20040;-77
2021/01/30 08:07:11;;;;;;;4.07;3.10;;;5.20;79.20;;;;;;5059844;28;20036;-77
2021/01/30 08:10:11;;;;;;;4.68;3.45;;;5.20;79.10;;;;;;5042543;28;20040;-78
2021/01/30 08:13:19;;;;;;;4.47;3.33;;;5.20;79.20;;;;;;5003424;28;20033;-78
2021/01/30 08:15:57;;;;;;;4.38;3.20;;;5.20;79.20;;;;;;5046511;28;20115;-78
2021/01/30 08:18:39;;;;;;;4.32;3.60;;;5.20;79.20;;;;;;5037993;28;20029;-78
2021/01/30 08:21:23;;;;;;;5.00;3.85;;;5.20;79.20;;;;;;5049173;28;20070;-77
2021/01/30 08:23:58;;;;;;;4.22;3.15;;;5.20;79.20;;;;;;5028854;28;20028;-79
2021/01/30 08:26:30;;;;;;;5.03;3.70;;;5.20;79.20;;;;;;5072211;28;20032;-78
2021/01/30 08:29:15;;;;;;;5.07;3.50;;;5.10;79.10;;;;;;5037276;28;20468;-78
2021/01/30 08:31:48;;;;;;;4.68;3.45;;;5.10;79.20;;;;;;5033036;28;20033;-78
2021/01/30 08:34:20;;;;;;;4.55;3.42;;;5.20;79.20;;;;;;5035653;28;20025;-78
2021/01/30 08:36:50;;;;;;;4.82;3.53;;;5.10;79.10;;;;;;5037613;28;20028;-78
2021/01/30 08:39:33;;;;;;;5.03;4.00;;;5.20;79.20;;;;;;5036981;28;20024;-78
2021/01/30 08:42:19;;;;;;;5.05;3.75;;;5.20;79.20;;;;;;5033278;28;20037;-79
2021/01/30 08:44:56;;;;;;;4.90;3.70;;;5.10;79.10;;;;;;5050638;28;20033;-78
2021/01/30 08:47:33;;;;;;;4.53;3.45;;;5.10;79.10;;;;;;5020328;28;20060;-78
2021/01/30 08:50:32;;;;;;;4.72;3.47;;;5.10;79.20;;;;;;5016427;28;20026;-78
2021/01/30 08:53:22;;;;;;;5.03;3.80;;;5.10;79.10;;;;;;5020569;28;20021;-78
2021/01/30 08:55:54;;;;;;;4.88;3.58;;;5.10;79.20;;;;;;5020951;28;20416;-78
2021/01/30 08:58:32;;;;;;;4.30;3.40;;;5.10;79.10;;;;;;5031082;28;20025;-79
2021/01/30 09:01:01;;;;;;;4.85;3.63;;;5.10;79.20;;;;;;5052277;28;20118;-77
2021/01/30 09:03:47;;;;;;;5.00;3.60;;;5.10;79.10;;;;;;5016801;28;20025;-77
2021/01/30 09:06:40;;;;;;;5.07;3.40;;;5.10;79.30;;;;;;5026661;28;20103;-77
2021/01/30 09:09:13;;;;;;;5.30;3.78;;;5.10;79.30;;;;;;5034735;28;20457;-76
2021/01/30 09:11:51;;;;;;;5.38;3.75;;;5.10;79.10;;;;;;5043577;28;20060;-77
2021/01/30 09:14:16;;;;;;;5.97;3.90;;;5.10;79.20;;;;;;5035309;28;20123;-77
2021/01/30 09:16:51;;;;;;;5.78;3.63;;;5.10;79.10;;;;;;5014481;28;20179;-76
2021/01/30 09:19:24;;;;;;;;;;;5.10;79.20;;;;;;5025550;28;20074;-76
2021/01/30 09:22:04;;;;;;;5.25;3.58;;;5.10;79.10;;;;;;5025900;28;20574;-76
2021/01/30 09:24:51;;;;;;;4.70;3.75;;;5.10;79.00;;;;;;5040230;28;20090;-76
2021/01/30 09:27:27;;;;;;;4.82;3.70;;;5.10;79.20;;;;;;5049253;28;20869;-77
2021/01/30 09:29:54;;;;;;;4.70;3.40;;;5.10;79.10;;;;;;5018019;28;20051;-77
2021/01/30 09:32:27;;;;;;;5.30;3.72;;;5.10;79.20;;;;;;5047055;28;20030;-76
2021/01/30 09:34:58;;;;;;;5.22;3.88;;;5.10;79.20;;;;;;5019382;28;20032;-76
2021/01/30 09:37:34;;;;;;;5.07;3.72;;;5.20;79.30;;;;;;5009498;28;20022;-76
2021/01/30 09:40:00;;;;;;;5.97;4.00;;;5.20;79.30;;;;;;5045763;28;20017;-76
2021/01/30 09:42:27;;;;;;;5.68;3.45;;;5.10;79.20;;;;;;5036360;28;20052;-75
2021/01/30 09:45:15;;;;;;;5.75;4.07;;;5.20;79.20;;;;;;5048832;28;20033;-75
2021/01/30 09:47:48;;;;;;;5.30;3.72;;;5.20;79.30;;;;;;5074466;28;20050;-77
2021/01/30 09:50:20;;;;;;;5.40;3.67;;;5.20;79.20;;;;;;5056692;28;20024;-77
2021/01/30 09:52:59;;;;;;;5.07;3.75;;;5.10;79.10;;;;;;5047866;28;20053;-77
2021/01/30 09:55:26;;;;;;;5.80;3.92;;;5.20;79.30;;;;;;5055925;28;20028;-77
2021/01/30 09:58:20;;;;;;;6.22;4.40;;;5.20;79.20;;;;;;5024367;28;20025;-77
2021/01/30 10:00:47;;;;;;;5.75;4.20;;;5.20;79.40;;;;;;5070380;28;20047;-76
2021/01/30 10:03:20;;;;;;;5.72;4.13;;;5.20;79.20;;;;;;5048685;28;20052;-77
2021/01/30 10:05:47;;;;;;;5.93;4.03;;;5.20;79.20;;;;;;5053869;28;20029;-81
2021/01/30 10:08:30;;;;;;;5.72;4.43;;;5.20;79.20;;;;;;5039082;28;20155;-77
2021/01/30 10:11:10;;;;;;;5.55;3.90;;;5.20;79.30;;;;;;5060789;28;20035;-77
2021/01/30 10:13:38;;;;;;;6.20;4.60;;;5.20;79.30;;;;;;5063409;28;20469;-76
2021/01/30 10:16:09;;;;;;;5.70;4.10;;;5.20;79.20;;;;;;5054716;28;20488;-78
2021/01/30 10:18:38;;;;;;;6.32;4.47;;;5.20;79.20;;;;;;5052812;28;20485;-77
2021/01/30 10:21:03;;;;;;;5.53;3.83;;;5.20;79.20;;;;;;5043094;28;20122;-78
2021/01/30 10:23:39;;;;;;;5.38;3.75;;;5.20;79.20;;;;;;5038603;28;20083;-78
2021/01/30 10:26:06;;;;;;;6.32;4.63;;;5.30;79.30;;;;;;5049550;28;20062;-78
2021/01/30 10:29:04;;;;;;;5.18;3.85;;;5.30;79.20;;;;;;5063040;28;20025;-79
2021/01/30 10:31:49;;;;;;;6.05;4.20;;;5.30;79.40;;;;;;5022993;28;20079;-78
2021/01/30 10:34:36;;;;;;;5.80;4.00;;;5.30;79.30;;;;;;5035957;28;20029;-79
2021/01/30 10:37:17;;;;;;;5.95;4.50;;;5.30;79.20;;;;;;5030624;28;20449;-79
2021/01/30 10:40:03;;;;;;;5.63;4.25;;;5.30;79.30;;;;;;5039947;28;20082;-80
2021/01/30 10:42:33;;;;;;;6.63;4.45;;;5.30;79.20;;;;;;5042519;28;20095;-80
2021/01/30 10:45:23;;;;;;;5.78;4.50;;;5.30;79.20;;;;;;5072051;28;20499;-79
2021/01/30 10:48:09;;;;;;;5.82;4.03;;;5.30;79.30;;;;;;5037211;28;20021;-79
2021/01/30 10:50:44;;;;;;;5.07;3.83;;;5.30;79.20;;;;;;5053787;28;20095;-78
2021/01/30 10:53:33;;;;;;;4.97;3.92;;;5.40;79.30;;;;;;5044516;28;20020;-78
2021/01/30 10:56:00;;;;;;;5.18;3.72;;;5.40;79.30;;;;;;5040556;28;20052;-78
2021/01/30 10:58:32;;;;;;;6.00;4.15;;;5.40;79.20;;;;;;5046706;28;20037;-76
2021/01/30 11:01:03;;;;;;;5.85;4.60;;;5.40;79.30;;;;;;5048432;28;20043;-76
2021/01/30 11:03:41;;;;;;;6.15;4.30;;;5.40;79.30;;;;;;5053057;28;20474;-77
2021/01/30 11:06:26;;;;;;;5.65;4.30;;;5.40;79.30;;;;;;5041132;28;20027;-76
2021/01/30 11:08:53;;;;;;;5.15;3.92;;;5.40;79.30;;;;;;5053479;28;20051;-77
2021/01/30 11:11:30;;;;;;;5.60;4.55;;;5.40;79.20;;;;;;5053221;28;20040;-76
2021/01/30 11:13:58;;;;;;;5.70;4.20;;;5.50;79.30;;;;;;5037830;28;20388;-77
2021/01/30 11:16:32;;;;;;;5.43;4.18;;;5.50;79.20;;;;;;5043451;28;20024;-76
2021/01/30 11:18:58;;;;;;;5.47;4.05;;;5.50;79.30;;;;;;5046323;28;20025;-78
2021/01/30 11:21:38;;;;;;;4.90;3.80;;;5.50;79.20;;;;;;5071639;28;20033;-77
2021/01/30 11:24:33;;;;;;;5.20;4.00;;;5.50;79.30;;;;;;5053996;28;20029;-76
2021/01/30 11:26:59;;;;;;;4.82;3.92;;;5.50;79.30;;;;;;5065183;28;20075;-79
2021/01/30 11:29:29;;;;;;;5.63;4.00;;;5.60;79.20;;;;;;5051438;28;20024;-78
2021/01/30 11:31:57;;;;;;;5.22;3.90;;;5.60;79.20;;;;;;5051909;28;20075;-78
2021/01/30 11:34:24;;;;;;;5.28;3.92;;;5.60;79.20;;;;;;5034633;28;20027;-77
2021/01/30 11:36:50;;;;;;;5.35;4.22;;;5.60;79.80;;;;;;5023391;28;20044;-77
2021/01/30 11:39:27;;;;;;;5.40;4.05;;;5.60;79.20;;;;;;5048089;28;20033;-77
2021/01/30 11:41:53;;;;;;;5.07;3.83;;;5.70;79.30;;;;;;5062793;28;20495;-77
2021/01/30 11:44:19;;;;;;;5.43;3.58;;;5.70;79.20;;;;;;5029891;28;20029;-77
2021/01/30 11:46:45;;;;;;;5.22;3.88;;;5.70;79.20;;;;;;5031763;28;20037;-77
2021/01/30 11:49:11;;;;;;;5.70;4.18;;;5.70;79.20;;;;;;5033002;28;20523;-77
2021/01/30 11:51:36;;;;;;;6.15;4.40;;;5.80;79.20;;;;;;5031653;28;20108;-77
2021/01/30 11:54:02;;;;;;;4.45;3.45;;;5.70;79.10;;;;;;5071337;28;20036;-77
2021/01/30 11:56:28;;;;;;;4.97;3.78;;;5.70;79.10;;;;;;5021048;28;20020;-76
2021/01/30 11:58:53;;;;;;;5.25;4.05;;;5.80;79.20;;;;;;5036689;28;20120;-77
2021/01/30 12:01:19;;;;;;;5.95;4.43;;;5.80;79.10;;;;;;5047494;28;20095;-77
2021/01/30 12:03:45;;;;;;;5.35;4.03;;;5.80;79.20;;;;;;5031912;28;20087;-75
2021/01/30 12:06:11;;;;;;;5.43;4.18;;;5.80;79.10;;;;;;5039017;28;20028;-77
2021/01/30 12:08:37;;;;;;;5.30;3.78;;;5.80;79.10;;;;;;5041068;28;20017;-77
2021/01/30 12:11:03;;;;;;;5.70;4.20;;;5.90;79.10;;;;;;5004649;28;20366;-78
2021/01/30 12:13:29;;;;;;;5.18;3.78;;;5.90;79.10;;;;;;5068818;28;20100;-77
2021/01/30 12:15:55;;;;;;;5.70;4.30;;;5.90;79.10;;;;;;5030694;28;20116;-76
2021/01/30 12:18:21;;;;;;;5.57;4.32;;;5.90;79.10;;;;;;5017111;28;20074;-78
2021/01/30 12:20:49;;;;;;;5.07;3.80;;;5.90;79.00;;;;;;5032430;28;20055;-77
2021/01/30 12:23:15;;;;;;;5.28;3.95;;;5.90;79.00;;;;;;5047871;28;20013;-78
2021/01/30 12:25:42;;;;;;;5.30;4.07;;;6.00;79.10;;;;;;5058034;28;20056;-77
2021/01/30 12:28:09;;;;;;;5.78;4.40;;;6.00;79.10;;;;;;5031099;28;20436;-77
2021/01/30 12:30:38;;;;;;;5.28;4.03;;;6.00;79.00;;;;;;5038022;28;20021;-80
2021/01/30 12:33:05;;;;;;;6.60;4.28;;;6.00;79.00;;;;;;5075648;28;20473;-80
2021/01/30 12:35:32;;;;;;;6.15;4.90;;;6.00;79.00;;;;;;5041555;28;20029;-77
2021/01/30 12:37:59;;;;;;;5.82;4.40;;;6.00;79.00;;;;;;5057693;28;20392;-77
2021/01/30 12:40:31;;;;;;;6.20;4.47;;;6.00;79.00;;;;;;5008393;28;20574;-76
2021/01/30 12:42:58;;;;;;;5.53;4.22;;;6.00;79.00;;;;;;5037758;28;20108;-76
2021/01/30 12:45:24;;;;;;;6.22;4.60;;;6.00;79.00;;;;;;5031306;28;20036;-77
2021/01/30 12:47:50;;;;;;;5.50;4.25;;;6.00;79.00;;;;;;5057518;28;20041;-76
2021/01/30 12:50:20;;;;;;;5.13;3.88;;;6.10;79.00;;;;;;5057796;28;20033;-77
2021/01/30 12:52:46;;;;;;;6.10;4.57;;;6.10;79.00;;;;;;5057377;28;20093;-76
2021/01/30 12:55:13;;;;;;;6.13;4.70;;;6.10;79.00;;;;;;5041132;28;20040;-77
2021/01/30 12:57:39;;;;;;;5.28;4.13;;;6.10;79.00;;;;;;5041552;28;20032;-76
2021/01/30 13:00:12;;;;;;;5.60;4.22;;;6.10;79.00;;;;;;5025502;28;20033;-76
2021/01/30 13:02:37;;;;;;;5.80;4.10;;;6.10;79.00;;;;;;5049367;28;20037;-76
2021/01/30 13:05:05;;;;;;;6.55;5.00;;;6.10;79.00;;;;;;5057759;28;20025;-76
2021/01/30 13:07:31;;;;;;;4.95;3.92;;;6.20;79.00;;;;;;5040802;28;20021;-77
2021/01/30 13:09:57;;;;;;;5.82;4.35;;;6.20;79.00;;;;;;5039746;28;20029;-77
2021/01/30 13:12:23;;;;;;;5.72;4.22;;;6.20;79.00;;;;;;5040608;28;20120;-76
2021/01/30 13:14:48;;;;;;;5.70;4.30;;;6.20;79.00;;;;;;5016506;28;20036;-76
2021/01/30 13:17:15;;;;;;;4.97;3.85;;;6.20;78.90;;;;;;5061383;28;20032;-76
2021/01/30 13:19:41;;;;;;;6.07;4.68;;;6.20;78.90;;;;;;5048321;28;20111;-76
2021/01/30 13:22:06;;;;;;;5.60;4.10;;;6.20;79.50;;;;;;5036369;28;20148;-76
2021/01/30 13:24:32;;;;;;;6.07;4.97;;;6.20;78.90;;;;;;5036513;28;20465;-78
2021/01/30 13:27:04;;;;;;;5.47;4.22;;;6.20;79.50;;;;;;5048007;28;20025;-78
2021/01/30 13:29:32;;;;;;;5.13;3.85;;;6.20;78.90;;;;;;5046038;28;20029;-78
2021/01/30 13:31:59;;;;;;;5.68;4.43;;;6.30;78.90;;;;;;5050942;28;20067;-76